sensor_id;sensor_type;location;lat;lon;timestamp;P1;durP1;ratioP1;P2;durP2;ratioP2
13595;SDS011;6868;52.544;13.416;2023-12-04T00:00:33;1.50;;;1.30;;
13595;SDS011;6868;52.544;13.416;2023-12-04T00:03:00;1.27;;;1.08;;
13595;SDS011;6868;52.544;13.416;2023-12-04T00:05:30;1.27;;;1.00;;
13595;SDS011;6868;52.544;13.416;2023-12-04T00:07:58;1.00;;;0.77;;
13595;SDS011;6868;52.544;13.416;2023-12-04T00:10:26;1.13;;;0.93;;
13595;SDS011;6868;52.544;13.416;2023-12-04T00:12:53;1.15;;;0.93;;
13595;SDS011;6868;52.544;13.416;2023-12-04T00:15:20;1.02;;;0.82;;
13595;SDS011;6868;52.544;13.416;2023-12-04T00:17:47;1.30;;;1.08;;
13595;SDS011;6868;52.544;13.416;2023-12-04T00:20:15;1.20;;;0.90;;
13595;SDS011;6868;52.544;13.416;2023-12-04T00:22:42;6.03;;;2.70;;
13595;SDS011;6868;52.544;13.416;2023-12-04T00:25:10;0.73;;;0.57;;
13595;SDS011;6868;52.544;13.416;2023-12-04T00:27:38;1.05;;;0.82;;
13595;SDS011;6868;52.544;13.416;2023-12-04T00:30:05;2.30;;;2.00;;
13595;SDS011;6868;52.544;13.416;2023-12-04T00:32:32;1.42;;;1.10;;
13595;SDS011;6868;52.544;13.416;2023-12-04T00:35:00;1.42;;;1.13;;
13595;SDS011;6868;52.544;13.416;2023-12-04T00:37:27;1.75;;;1.48;;
13595;SDS011;6868;52.544;13.416;2023-12-04T00:39:54;2.08;;;1.88;;
13595;SDS011;6868;52.544;13.416;2023-12-04T00:42:22;0.70;;;0.70;;
13595;SDS011;6868;52.544;13.416;2023-12-04T00:44:50;1.10;;;1.00;;
13595;SDS011;6868;52.544;13.416;2023-12-04T00:47:17;48.60;;;16.10;;
13595;SDS011;6868;52.544;13.416;2023-12-04T00:49:44;1.75;;;1.55;;
13595;SDS011;6868;52.544;13.416;2023-12-04T00:52:11;160.73;;;52.50;;
13595;SDS011;6868;52.544;13.416;2023-12-04T00:54:41;17.75;;;7.38;;
13595;SDS011;6868;52.544;13.416;2023-12-04T00:57:09;61.70;;;36.10;;
13595;SDS011;6868;52.544;13.416;2023-12-04T00:59:38;99.43;;;35.47;;
13595;SDS011;6868;52.544;13.416;2023-12-04T01:02:05;60.25;;;36.05;;
13595;SDS011;6868;52.544;13.416;2023-12-04T01:04:33;60.35;;;36.28;;
13595;SDS011;6868;52.544;13.416;2023-12-04T01:07:00;60.60;;;36.50;;
13595;SDS011;6868;52.544;13.416;2023-12-04T01:09:27;59.38;;;35.72;;
13595;SDS011;6868;52.544;13.416;2023-12-04T01:11:55;55.80;;;34.80;;
13595;SDS011;6868;52.544;13.416;2023-12-04T01:14:22;36.63;;;22.52;;
13595;SDS011;6868;52.544;13.416;2023-12-04T01:16:50;59.45;;;36.10;;
13595;SDS011;6868;52.544;13.416;2023-12-04T01:19:18;32.65;;;20.80;;
13595;SDS011;6868;52.544;13.416;2023-12-04T01:21:47;7.70;;;4.97;;
13595;SDS011;6868;52.544;13.416;2023-12-04T01:24:15;4.65;;;3.15;;
13595;SDS011;6868;52.544;13.416;2023-12-04T01:26:42;6.30;;;4.20;;
13595;SDS011;6868;52.544;13.416;2023-12-04T01:29:09;16.58;;;10.60;;
13595;SDS011;6868;52.544;13.416;2023-12-04T01:31:37;13.50;;;8.77;;
13595;SDS011;6868;52.544;13.416;2023-12-04T01:34:05;3.65;;;2.42;;
13595;SDS011;6868;52.544;13.416;2023-12-04T01:36:32;3.70;;;2.50;;
13595;SDS011;6868;52.544;13.416;2023-12-04T01:39:00;1.95;;;1.35;;
13595;SDS011;6868;52.544;13.416;2023-12-04T01:41:28;3.25;;;2.17;;
13595;SDS011;6868;52.544;13.416;2023-12-04T01:43:56;10.57;;;6.78;;
13595;SDS011;6868;52.544;13.416;2023-12-04T01:46:23;2.67;;;2.10;;
13595;SDS011;6868;52.544;13.416;2023-12-04T01:48:50;11.07;;;7.13;;
13595;SDS011;6868;52.544;13.416;2023-12-04T01:51:19;76.07;;;34.90;;
13595;SDS011;6868;52.544;13.416;2023-12-04T01:53:46;76.50;;;35.00;;
13595;SDS011;6868;52.544;13.416;2023-12-04T01:56:14;78.25;;;35.80;;
13595;SDS011;6868;52.544;13.416;2023-12-04T01:58:41;77.68;;;35.33;;
13595;SDS011;6868;52.544;13.416;2023-12-04T02:01:09;68.60;;;36.95;;
13595;SDS011;6868;52.544;13.416;2023-12-04T02:03:36;153.30;;;50.92;;
13595;SDS011;6868;52.544;13.416;2023-12-04T02:06:04;65.95;;;38.35;;
13595;SDS011;6868;52.544;13.416;2023-12-04T02:08:33;57.60;;;35.67;;
13595;SDS011;6868;52.544;13.416;2023-12-04T02:11:00;57.42;;;35.65;;
13595;SDS011;6868;52.544;13.416;2023-12-04T02:13:27;58.08;;;35.80;;
13595;SDS011;6868;52.544;13.416;2023-12-04T02:15:55;57.42;;;35.47;;
13595;SDS011;6868;52.544;13.416;2023-12-04T02:18:25;36.88;;;23.35;;
13595;SDS011;6868;52.544;13.416;2023-12-04T02:20:53;22.05;;;14.25;;
13595;SDS011;6868;52.544;13.416;2023-12-04T02:23:22;32.13;;;20.58;;
13595;SDS011;6868;52.544;13.416;2023-12-04T02:25:51;30.20;;;19.13;;
13595;SDS011;6868;52.544;13.416;2023-12-04T02:28:20;2.10;;;1.47;;
13595;SDS011;6868;52.544;13.416;2023-12-04T02:30:47;5.60;;;3.70;;
13595;SDS011;6868;52.544;13.416;2023-12-04T02:33:16;8.20;;;5.40;;
13595;SDS011;6868;52.544;13.416;2023-12-04T02:35:45;2.47;;;1.70;;
13595;SDS011;6868;52.544;13.416;2023-12-04T02:38:13;1.23;;;0.88;;
13595;SDS011;6868;52.544;13.416;2023-12-04T02:40:40;1.40;;;1.17;;
13595;SDS011;6868;52.544;13.416;2023-12-04T02:43:09;5.07;;;3.35;;
13595;SDS011;6868;52.544;13.416;2023-12-04T02:45:37;54.50;;;34.20;;
13595;SDS011;6868;52.544;13.416;2023-12-04T02:48:04;57.00;;;35.63;;
13595;SDS011;6868;52.544;13.416;2023-12-04T02:50:31;54.47;;;34.22;;
13595;SDS011;6868;52.544;13.416;2023-12-04T02:53:01;35.67;;;22.00;;
13595;SDS011;6868;52.544;13.416;2023-12-04T02:55:28;20.98;;;13.18;;
13595;SDS011;6868;52.544;13.416;2023-12-04T02:57:55;13.30;;;8.68;;
13595;SDS011;6868;52.544;13.416;2023-12-04T03:00:24;47.83;;;30.13;;
13595;SDS011;6868;52.544;13.416;2023-12-04T03:02:51;66.60;;;37.22;;
13595;SDS011;6868;52.544;13.416;2023-12-04T03:05:19;2.20;;;1.58;;
13595;SDS011;6868;52.544;13.416;2023-12-04T03:07:46;1.70;;;1.23;;
13595;SDS011;6868;52.544;13.416;2023-12-04T03:10:13;3.73;;;2.63;;
13595;SDS011;6868;52.544;13.416;2023-12-04T03:12:40;2.72;;;1.83;;
13595;SDS011;6868;52.544;13.416;2023-12-04T03:15:08;1.58;;;1.13;;
13595;SDS011;6868;52.544;13.416;2023-12-04T03:17:38;1.52;;;1.13;;
13595;SDS011;6868;52.544;13.416;2023-12-04T03:20:05;2.20;;;1.80;;
13595;SDS011;6868;52.544;13.416;2023-12-04T03:22:33;1.02;;;0.82;;
13595;SDS011;6868;52.544;13.416;2023-12-04T03:25:01;1.20;;;0.90;;
13595;SDS011;6868;52.544;13.416;2023-12-04T03:27:28;1.10;;;0.80;;
13595;SDS011;6868;52.544;13.416;2023-12-04T03:29:55;2.03;;;1.70;;
13595;SDS011;6868;52.544;13.416;2023-12-04T03:32:23;1.60;;;1.20;;
13595;SDS011;6868;52.544;13.416;2023-12-04T03:34:51;1.25;;;1.00;;
13595;SDS011;6868;52.544;13.416;2023-12-04T03:37:18;1.33;;;1.00;;
13595;SDS011;6868;52.544;13.416;2023-12-04T03:39:46;2.10;;;1.75;;
13595;SDS011;6868;52.544;13.416;2023-12-04T03:42:13;6.25;;;2.92;;
13595;SDS011;6868;52.544;13.416;2023-12-04T03:44:40;29.50;;;18.00;;
13595;SDS011;6868;52.544;13.416;2023-12-04T03:47:07;121.15;;;44.60;;
13595;SDS011;6868;52.544;13.416;2023-12-04T03:49:35;67.32;;;37.10;;
13595;SDS011;6868;52.544;13.416;2023-12-04T03:52:04;4.93;;;3.13;;
13595;SDS011;6868;52.544;13.416;2023-12-04T03:54:31;92.10;;;36.93;;
13595;SDS011;6868;52.544;13.416;2023-12-04T03:56:58;115.03;;;44.15;;
13595;SDS011;6868;52.544;13.416;2023-12-04T03:59:26;82.35;;;35.10;;
13595;SDS011;6868;52.544;13.416;2023-12-04T04:02:00;104.47;;;41.33;;
13595;SDS011;6868;52.544;13.416;2023-12-04T04:04:27;119.00;;;44.47;;
13595;SDS011;6868;52.544;13.416;2023-12-04T04:06:55;109.75;;;42.33;;
13595;SDS011;6868;52.544;13.416;2023-12-04T04:09:23;119.97;;;44.75;;
13595;SDS011;6868;52.544;13.416;2023-12-04T04:11:50;119.05;;;44.60;;
13595;SDS011;6868;52.544;13.416;2023-12-04T04:14:18;120.05;;;44.72;;
13595;SDS011;6868;52.544;13.416;2023-12-04T04:16:45;126.43;;;45.95;;
13595;SDS011;6868;52.544;13.416;2023-12-04T04:19:12;96.60;;;39.25;;
13595;SDS011;6868;52.544;13.416;2023-12-04T04:21:39;98.60;;;40.40;;
13595;SDS011;6868;52.544;13.416;2023-12-04T04:24:07;108.00;;;42.00;;
13595;SDS011;6868;52.544;13.416;2023-12-04T04:26:35;95.78;;;38.75;;
13595;SDS011;6868;52.544;13.416;2023-12-04T04:29:03;113.13;;;43.08;;
13595;SDS011;6868;52.544;13.416;2023-12-04T04:31:30;129.57;;;48.42;;
13595;SDS011;6868;52.544;13.416;2023-12-04T04:33:57;90.25;;;36.80;;
13595;SDS011;6868;52.544;13.416;2023-12-04T04:36:24;86.18;;;36.22;;
13595;SDS011;6868;52.544;13.416;2023-12-04T04:38:52;212.93;;;59.72;;
13595;SDS011;6868;52.544;13.416;2023-12-04T04:41:19;139.82;;;49.50;;
13595;SDS011;6868;52.544;13.416;2023-12-04T04:43:48;186.63;;;57.22;;
13595;SDS011;6868;52.544;13.416;2023-12-04T04:46:15;290.17;;;70.50;;
13595;SDS011;6868;52.544;13.416;2023-12-04T04:48:42;231.45;;;60.92;;
13595;SDS011;6868;52.544;13.416;2023-12-04T04:51:09;270.30;;;65.57;;
13595;SDS011;6868;52.544;13.416;2023-12-04T04:53:36;275.23;;;68.10;;
13595;SDS011;6868;52.544;13.416;2023-12-04T04:56:05;143.02;;;49.40;;
13595;SDS011;6868;52.544;13.416;2023-12-04T04:58:34;284.23;;;71.53;;
13595;SDS011;6868;52.544;13.416;2023-12-04T05:01:03;328.13;;;76.28;;
13595;SDS011;6868;52.544;13.416;2023-12-04T05:03:31;225.32;;;60.58;;
13595;SDS011;6868;52.544;13.416;2023-12-04T05:05:58;224.00;;;61.80;;
13595;SDS011;6868;52.544;13.416;2023-12-04T05:08:25;238.88;;;62.33;;
13595;SDS011;6868;52.544;13.416;2023-12-04T05:10:52;301.88;;;71.47;;
13595;SDS011;6868;52.544;13.416;2023-12-04T05:13:20;327.92;;;73.95;;
13595;SDS011;6868;52.544;13.416;2023-12-04T05:15:47;580.72;;;106.97;;
13595;SDS011;6868;52.544;13.416;2023-12-04T05:18:16;202.55;;;58.10;;
13595;SDS011;6868;52.544;13.416;2023-12-04T05:20:43;198.35;;;57.50;;
13595;SDS011;6868;52.544;13.416;2023-12-04T05:23:10;156.07;;;50.60;;
13595;SDS011;6868;52.544;13.416;2023-12-04T05:25:37;187.82;;;56.28;;
13595;SDS011;6868;52.544;13.416;2023-12-04T05:28:05;153.57;;;51.28;;
13595;SDS011;6868;52.544;13.416;2023-12-04T05:30:32;183.30;;;57.38;;
13595;SDS011;6868;52.544;13.416;2023-12-04T05:32:59;144.07;;;49.17;;
13595;SDS011;6868;52.544;13.416;2023-12-04T05:35:28;392.17;;;88.13;;
13595;SDS011;6868;52.544;13.416;2023-12-04T05:37:58;226.30;;;60.20;;
13595;SDS011;6868;52.544;13.416;2023-12-04T05:40:26;385.40;;;77.50;;
13595;SDS011;6868;52.544;13.416;2023-12-04T05:42:53;499.17;;;91.13;;
13595;SDS011;6868;52.544;13.416;2023-12-04T05:45:20;411.90;;;85.13;;
13595;SDS011;6868;52.544;13.416;2023-12-04T05:47:47;239.73;;;62.35;;
13595;SDS011;6868;52.544;13.416;2023-12-04T05:50:15;246.47;;;62.30;;
13595;SDS011;6868;52.544;13.416;2023-12-04T05:52:43;242.13;;;61.88;;
13595;SDS011;6868;52.544;13.416;2023-12-04T05:55:10;237.23;;;61.50;;
13595;SDS011;6868;52.544;13.416;2023-12-04T05:57:38;293.53;;;68.87;;
13595;SDS011;6868;52.544;13.416;2023-12-04T06:00:06;292.92;;;69.63;;
13595;SDS011;6868;52.544;13.416;2023-12-04T06:02:37;278.85;;;67.25;;
13595;SDS011;6868;52.544;13.416;2023-12-04T06:05:05;299.30;;;69.45;;
13595;SDS011;6868;52.544;13.416;2023-12-04T06:07:33;299.73;;;69.10;;
13595;SDS011;6868;52.544;13.416;2023-12-04T06:10:04;245.77;;;64.47;;
13595;SDS011;6868;52.544;13.416;2023-12-04T06:12:32;284.55;;;66.60;;
13595;SDS011;6868;52.544;13.416;2023-12-04T06:14:59;269.57;;;66.10;;
13595;SDS011;6868;52.544;13.416;2023-12-04T06:17:27;285.13;;;67.05;;
13595;SDS011;6868;52.544;13.416;2023-12-04T06:19:54;189.00;;;57.27;;
13595;SDS011;6868;52.544;13.416;2023-12-04T06:22:22;194.52;;;57.38;;
13595;SDS011;6868;52.544;13.416;2023-12-04T06:24:49;251.32;;;64.22;;
13595;SDS011;6868;52.544;13.416;2023-12-04T06:27:18;282.67;;;67.15;;
13595;SDS011;6868;52.544;13.416;2023-12-04T06:29:46;235.93;;;64.38;;
13595;SDS011;6868;52.544;13.416;2023-12-04T06:32:14;257.58;;;64.38;;
13595;SDS011;6868;52.544;13.416;2023-12-04T06:34:41;141.88;;;49.17;;
13595;SDS011;6868;52.544;13.416;2023-12-04T06:37:09;194.07;;;55.75;;
13595;SDS011;6868;52.544;13.416;2023-12-04T06:39:37;112.93;;;43.92;;
13595;SDS011;6868;52.544;13.416;2023-12-04T06:42:06;248.13;;;62.60;;
13595;SDS011;6868;52.544;13.416;2023-12-04T06:44:36;126.90;;;45.83;;
13595;SDS011;6868;52.544;13.416;2023-12-04T06:47:04;118.28;;;43.83;;
13595;SDS011;6868;52.544;13.416;2023-12-04T06:49:32;89.90;;;38.10;;
13595;SDS011;6868;52.544;13.416;2023-12-04T06:51:59;229.45;;;61.35;;
13595;SDS011;6868;52.544;13.416;2023-12-04T06:54:29;114.15;;;43.78;;
13595;SDS011;6868;52.544;13.416;2023-12-04T06:56:56;281.83;;;66.97;;
13595;SDS011;6868;52.544;13.416;2023-12-04T06:59:23;267.42;;;66.32;;
13595;SDS011;6868;52.544;13.416;2023-12-04T07:01:52;123.28;;;46.58;;
13595;SDS011;6868;52.544;13.416;2023-12-04T07:04:19;119.22;;;45.35;;
13595;SDS011;6868;52.544;13.416;2023-12-04T07:06:47;206.20;;;58.38;;
13595;SDS011;6868;52.544;13.416;2023-12-04T07:09:14;255.38;;;65.13;;
13595;SDS011;6868;52.544;13.416;2023-12-04T07:11:43;257.77;;;63.45;;
13595;SDS011;6868;52.544;13.416;2023-12-04T07:14:10;247.70;;;64.07;;
13595;SDS011;6868;52.544;13.416;2023-12-04T07:16:38;208.80;;;58.08;;
13595;SDS011;6868;52.544;13.416;2023-12-04T07:19:10;255.13;;;62.70;;
13595;SDS011;6868;52.544;13.416;2023-12-04T07:21:39;136.70;;;48.85;;
13595;SDS011;6868;52.544;13.416;2023-12-04T07:24:07;155.77;;;51.95;;
13595;SDS011;6868;52.544;13.416;2023-12-04T07:26:34;199.82;;;58.17;;
13595;SDS011;6868;52.544;13.416;2023-12-04T07:29:02;198.38;;;57.25;;
13595;SDS011;6868;52.544;13.416;2023-12-04T07:31:30;252.18;;;63.30;;
13595;SDS011;6868;52.544;13.416;2023-12-04T07:33:57;164.00;;;53.05;;
13595;SDS011;6868;52.544;13.416;2023-12-04T07:36:28;203.10;;;59.55;;
13595;SDS011;6868;52.544;13.416;2023-12-04T07:38:56;235.25;;;62.88;;
13595;SDS011;6868;52.544;13.416;2023-12-04T07:41:23;159.65;;;53.42;;
13595;SDS011;6868;52.544;13.416;2023-12-04T07:43:50;152.05;;;51.97;;
13595;SDS011;6868;52.544;13.416;2023-12-04T07:46:19;276.00;;;67.72;;
13595;SDS011;6868;52.544;13.416;2023-12-04T07:48:47;127.30;;;45.70;;
13595;SDS011;6868;52.544;13.416;2023-12-04T07:51:14;159.18;;;49.88;;
13595;SDS011;6868;52.544;13.416;2023-12-04T07:53:42;188.48;;;56.42;;
13595;SDS011;6868;52.544;13.416;2023-12-04T07:56:11;215.55;;;59.25;;
13595;SDS011;6868;52.544;13.416;2023-12-04T07:58:39;218.35;;;59.58;;
13595;SDS011;6868;52.544;13.416;2023-12-04T08:01:06;205.05;;;59.72;;
13595;SDS011;6868;52.544;13.416;2023-12-04T08:03:34;209.18;;;59.35;;
13595;SDS011;6868;52.544;13.416;2023-12-04T08:06:02;274.25;;;68.30;;
13595;SDS011;6868;52.544;13.416;2023-12-04T08:08:30;255.80;;;62.90;;
13595;SDS011;6868;52.544;13.416;2023-12-04T08:10:59;255.18;;;64.85;;
13595;SDS011;6868;52.544;13.416;2023-12-04T08:13:26;288.83;;;69.00;;
13595;SDS011;6868;52.544;13.416;2023-12-04T08:15:54;176.57;;;55.33;;
13595;SDS011;6868;52.544;13.416;2023-12-04T08:18:21;103.68;;;41.85;;
13595;SDS011;6868;52.544;13.416;2023-12-04T08:20:49;208.07;;;59.58;;
13595;SDS011;6868;52.544;13.416;2023-12-04T08:23:17;272.08;;;66.97;;
13595;SDS011;6868;52.544;13.416;2023-12-04T08:25:47;232.10;;;62.03;;
13595;SDS011;6868;52.544;13.416;2023-12-04T08:28:16;221.53;;;60.43;;
13595;SDS011;6868;52.544;13.416;2023-12-04T08:30:43;406.63;;;84.67;;
13595;SDS011;6868;52.544;13.416;2023-12-04T08:33:14;118.97;;;44.58;;
13595;SDS011;6868;52.544;13.416;2023-12-04T08:35:41;134.27;;;47.85;;
13595;SDS011;6868;52.544;13.416;2023-12-04T08:38:08;119.93;;;44.88;;
13595;SDS011;6868;52.544;13.416;2023-12-04T08:40:35;119.70;;;45.27;;
13595;SDS011;6868;52.544;13.416;2023-12-04T08:43:03;102.15;;;42.22;;
13595;SDS011;6868;52.544;13.416;2023-12-04T08:45:31;93.82;;;40.10;;
13595;SDS011;6868;52.544;13.416;2023-12-04T08:47:59;85.63;;;38.17;;
13595;SDS011;6868;52.544;13.416;2023-12-04T08:50:26;84.03;;;36.53;;
13595;SDS011;6868;52.544;13.416;2023-12-04T08:52:53;94.68;;;41.03;;
13595;SDS011;6868;52.544;13.416;2023-12-04T08:55:21;71.35;;;37.13;;
13595;SDS011;6868;52.544;13.416;2023-12-04T08:57:51;90.97;;;38.65;;
13595;SDS011;6868;52.544;13.416;2023-12-04T09:00:19;56.27;;;30.37;;
13595;SDS011;6868;52.544;13.416;2023-12-04T09:02:48;439.70;;;88.80;;
13595;SDS011;6868;52.544;13.416;2023-12-04T09:05:16;564.45;;;96.93;;
13595;SDS011;6868;52.544;13.416;2023-12-04T09:07:43;292.92;;;65.72;;
13595;SDS011;6868;52.544;13.416;2023-12-04T09:10:10;192.70;;;62.03;;
13595;SDS011;6868;52.544;13.416;2023-12-04T09:12:37;589.70;;;103.32;;
13595;SDS011;6868;52.544;13.416;2023-12-04T09:15:05;372.40;;;76.78;;
13595;SDS011;6868;52.544;13.416;2023-12-04T09:17:32;305.92;;;71.20;;
13595;SDS011;6868;52.544;13.416;2023-12-04T09:20:01;159.50;;;50.72;;
13595;SDS011;6868;52.544;13.416;2023-12-04T09:22:30;252.75;;;61.47;;
13595;SDS011;6868;52.544;13.416;2023-12-04T09:25:00;96.47;;;40.15;;
13595;SDS011;6868;52.544;13.416;2023-12-04T09:27:27;126.20;;;47.30;;
13595;SDS011;6868;52.544;13.416;2023-12-04T09:29:54;163.80;;;55.60;;
13595;SDS011;6868;52.544;13.416;2023-12-04T09:32:21;200.30;;;57.53;;
13595;SDS011;6868;52.544;13.416;2023-12-04T09:34:49;192.38;;;59.33;;
13595;SDS011;6868;52.544;13.416;2023-12-04T09:37:19;393.83;;;85.00;;
13595;SDS011;6868;52.544;13.416;2023-12-04T09:39:47;143.80;;;51.97;;
13595;SDS011;6868;52.544;13.416;2023-12-04T09:42:19;140.60;;;50.35;;
13595;SDS011;6868;52.544;13.416;2023-12-04T09:44:46;162.30;;;52.78;;
13595;SDS011;6868;52.544;13.416;2023-12-04T09:47:16;338.40;;;73.78;;
13595;SDS011;6868;52.544;13.416;2023-12-04T09:49:44;393.23;;;79.07;;
13595;SDS011;6868;52.544;13.416;2023-12-04T09:52:12;239.50;;;68.65;;
13595;SDS011;6868;52.544;13.416;2023-12-04T09:54:41;105.65;;;39.10;;
13595;SDS011;6868;52.544;13.416;2023-12-04T09:57:08;184.85;;;57.25;;
13595;SDS011;6868;52.544;13.416;2023-12-04T09:59:40;213.73;;;63.38;;
13595;SDS011;6868;52.544;13.416;2023-12-04T10:02:10;229.45;;;63.40;;
13595;SDS011;6868;52.544;13.416;2023-12-04T10:04:40;209.57;;;62.45;;
13595;SDS011;6868;52.544;13.416;2023-12-04T10:07:09;184.73;;;56.17;;
13595;SDS011;6868;52.544;13.416;2023-12-04T10:09:36;200.40;;;57.88;;
13595;SDS011;6868;52.544;13.416;2023-12-04T10:12:06;175.45;;;55.05;;
13595;SDS011;6868;52.544;13.416;2023-12-04T10:14:33;235.73;;;62.00;;
13595;SDS011;6868;52.544;13.416;2023-12-04T10:17:10;168.77;;;53.90;;
13595;SDS011;6868;52.544;13.416;2023-12-04T10:19:43;201.33;;;60.30;;
13595;SDS011;6868;52.544;13.416;2023-12-04T10:22:14;221.18;;;60.28;;
13595;SDS011;6868;52.544;13.416;2023-12-04T10:24:42;260.08;;;65.25;;
13595;SDS011;6868;52.544;13.416;2023-12-04T10:27:14;176.25;;;56.08;;
13595;SDS011;6868;52.544;13.416;2023-12-04T10:29:44;256.33;;;66.28;;
13595;SDS011;6868;52.544;13.416;2023-12-04T10:32:17;179.43;;;55.00;;
13595;SDS011;6868;52.544;13.416;2023-12-04T10:34:46;193.32;;;59.00;;
13595;SDS011;6868;52.544;13.416;2023-12-04T10:37:14;200.27;;;60.22;;
13595;SDS011;6868;52.544;13.416;2023-12-04T10:39:45;274.08;;;81.70;;
13595;SDS011;6868;52.544;13.416;2023-12-04T10:42:24;214.32;;;62.10;;
13595;SDS011;6868;52.544;13.416;2023-12-04T10:44:52;71.15;;;33.90;;
13595;SDS011;6868;52.544;13.416;2023-12-04T10:47:19;69.97;;;33.83;;
13595;SDS011;6868;52.544;13.416;2023-12-04T10:49:50;236.63;;;64.90;;
13595;SDS011;6868;52.544;13.416;2023-12-04T10:52:18;245.70;;;67.53;;
13595;SDS011;6868;52.544;13.416;2023-12-04T10:54:46;344.92;;;75.57;;
13595;SDS011;6868;52.544;13.416;2023-12-04T10:57:16;161.52;;;53.63;;
13595;SDS011;6868;52.544;13.416;2023-12-04T10:59:49;167.55;;;54.85;;
13595;SDS011;6868;52.544;13.416;2023-12-04T11:02:19;41.28;;;19.20;;
13595;SDS011;6868;52.544;13.416;2023-12-04T11:04:48;97.47;;;41.85;;
13595;SDS011;6868;52.544;13.416;2023-12-04T11:07:17;169.95;;;54.90;;
13595;SDS011;6868;52.544;13.416;2023-12-04T11:09:45;133.68;;;48.63;;
13595;SDS011;6868;52.544;13.416;2023-12-04T11:12:17;99.93;;;42.38;;
13595;SDS011;6868;52.544;13.416;2023-12-04T11:14:46;74.25;;;35.13;;
13595;SDS011;6868;52.544;13.416;2023-12-04T11:17:19;104.35;;;43.13;;
13595;SDS011;6868;52.544;13.416;2023-12-04T11:19:48;129.85;;;49.42;;
13595;SDS011;6868;52.544;13.416;2023-12-04T11:22:17;136.00;;;49.40;;
13595;SDS011;6868;52.544;13.416;2023-12-04T11:24:45;131.07;;;48.00;;
13595;SDS011;6868;52.544;13.416;2023-12-04T11:27:14;133.20;;;49.30;;
13595;SDS011;6868;52.544;13.416;2023-12-04T11:29:41;127.15;;;48.45;;
13595;SDS011;6868;52.544;13.416;2023-12-04T11:32:12;193.38;;;57.95;;
13595;SDS011;6868;52.544;13.416;2023-12-04T11:34:48;161.75;;;53.53;;
13595;SDS011;6868;52.544;13.416;2023-12-04T11:37:17;181.52;;;56.08;;
13595;SDS011;6868;52.544;13.416;2023-12-04T11:39:45;4.38;;;3.38;;
13595;SDS011;6868;52.544;13.416;2023-12-04T11:42:18;1.50;;;1.10;;
13595;SDS011;6868;52.544;13.416;2023-12-04T11:44:47;25.98;;;10.05;;
13595;SDS011;6868;52.544;13.416;2023-12-04T11:47:15;162.95;;;51.85;;
13595;SDS011;6868;52.544;13.416;2023-12-04T11:49:43;60.88;;;35.30;;
13595;SDS011;6868;52.544;13.416;2023-12-04T11:52:12;6.88;;;4.47;;
13595;SDS011;6868;52.544;13.416;2023-12-04T11:54:56;23.63;;;9.33;;
13595;SDS011;6868;52.544;13.416;2023-12-04T11:57:23;74.90;;;35.43;;
13595;SDS011;6868;52.544;13.416;2023-12-04T11:59:51;1.00;;;0.90;;
13595;SDS011;6868;52.544;13.416;2023-12-04T12:02:18;86.50;;;38.80;;
13595;SDS011;6868;52.544;13.416;2023-12-04T12:04:46;3.05;;;2.28;;
13595;SDS011;6868;52.544;13.416;2023-12-04T12:07:15;159.20;;;53.67;;
13595;SDS011;6868;52.544;13.416;2023-12-04T12:09:42;146.03;;;51.50;;
13595;SDS011;6868;52.544;13.416;2023-12-04T12:12:10;132.77;;;47.45;;
13595;SDS011;6868;52.544;13.416;2023-12-04T12:14:37;62.60;;;22.15;;
13595;SDS011;6868;52.544;13.416;2023-12-04T12:17:05;1.20;;;1.00;;
13595;SDS011;6868;52.544;13.416;2023-12-04T12:19:32;13.73;;;9.98;;
13595;SDS011;6868;52.544;13.416;2023-12-04T12:21:59;138.93;;;50.35;;
13595;SDS011;6868;52.544;13.416;2023-12-04T12:24:29;100.60;;;43.13;;
13595;SDS011;6868;52.544;13.416;2023-12-04T12:26:57;110.17;;;44.93;;
13595;SDS011;6868;52.544;13.416;2023-12-04T12:29:24;124.53;;;48.05;;
13595;SDS011;6868;52.544;13.416;2023-12-04T12:31:51;110.78;;;45.65;;
13595;SDS011;6868;52.544;13.416;2023-12-04T12:34:18;110.57;;;45.30;;
13595;SDS011;6868;52.544;13.416;2023-12-04T12:36:46;83.30;;;38.80;;
13595;SDS011;6868;52.544;13.416;2023-12-04T12:39:14;82.50;;;37.78;;
13595;SDS011;6868;52.544;13.416;2023-12-04T12:41:48;86.47;;;38.95;;
13595;SDS011;6868;52.544;13.416;2023-12-04T12:44:18;87.23;;;39.27;;
13595;SDS011;6868;52.544;13.416;2023-12-04T12:46:49;128.70;;;48.58;;
13595;SDS011;6868;52.544;13.416;2023-12-04T12:49:17;99.07;;;41.75;;
13595;SDS011;6868;52.544;13.416;2023-12-04T12:51:46;82.35;;;38.00;;
13595;SDS011;6868;52.544;13.416;2023-12-04T12:54:13;81.22;;;37.20;;
13595;SDS011;6868;52.544;13.416;2023-12-04T12:56:40;73.22;;;35.72;;
13595;SDS011;6868;52.544;13.416;2023-12-04T12:59:09;61.17;;;27.73;;
13595;SDS011;6868;52.544;13.416;2023-12-04T13:01:36;71.40;;;34.15;;
13595;SDS011;6868;52.544;13.416;2023-12-04T13:04:04;72.45;;;34.25;;
13595;SDS011;6868;52.544;13.416;2023-12-04T13:06:35;81.70;;;37.57;;
13595;SDS011;6868;52.544;13.416;2023-12-04T13:09:03;71.05;;;33.85;;
13595;SDS011;6868;52.544;13.416;2023-12-04T13:11:31;76.45;;;35.50;;
13595;SDS011;6868;52.544;13.416;2023-12-04T13:13:58;78.60;;;36.25;;
13595;SDS011;6868;52.544;13.416;2023-12-04T13:16:28;81.18;;;37.80;;
13595;SDS011;6868;52.544;13.416;2023-12-04T13:18:55;98.07;;;43.75;;
13595;SDS011;6868;52.544;13.416;2023-12-04T13:21:22;81.03;;;37.00;;
13595;SDS011;6868;52.544;13.416;2023-12-04T13:23:50;85.53;;;38.75;;
13595;SDS011;6868;52.544;13.416;2023-12-04T13:26:17;117.30;;;47.50;;
13595;SDS011;6868;52.544;13.416;2023-12-04T13:28:45;123.95;;;47.05;;
13595;SDS011;6868;52.544;13.416;2023-12-04T13:31:13;131.32;;;48.05;;
13595;SDS011;6868;52.544;13.416;2023-12-04T13:33:41;127.15;;;47.80;;
13595;SDS011;6868;52.544;13.416;2023-12-04T13:36:11;133.32;;;50.15;;
13595;SDS011;6868;52.544;13.416;2023-12-04T13:38:39;149.98;;;51.35;;
13595;SDS011;6868;52.544;13.416;2023-12-04T13:41:06;112.47;;;44.92;;
13595;SDS011;6868;52.544;13.416;2023-12-04T13:44:05;112.13;;;44.92;;
13595;SDS011;6868;52.544;13.416;2023-12-04T13:46:32;72.57;;;34.17;;
13595;SDS011;6868;52.544;13.416;2023-12-04T13:49:00;49.63;;;34.17;;
13595;SDS011;6868;52.544;13.416;2023-12-04T13:51:27;94.75;;;40.63;;
13595;SDS011;6868;52.544;13.416;2023-12-04T13:53:57;118.68;;;46.45;;
13595;SDS011;6868;52.544;13.416;2023-12-04T13:56:35;96.20;;;41.35;;
13595;SDS011;6868;52.544;13.416;2023-12-04T13:59:16;133.90;;;48.77;;
13595;SDS011;6868;52.544;13.416;2023-12-04T14:01:47;154.50;;;51.45;;
13595;SDS011;6868;52.544;13.416;2023-12-04T14:04:17;130.18;;;47.92;;
13595;SDS011;6868;52.544;13.416;2023-12-04T14:06:45;123.80;;;46.88;;
13595;SDS011;6868;52.544;13.416;2023-12-04T14:09:12;108.40;;;43.83;;
13595;SDS011;6868;52.544;13.416;2023-12-04T14:11:41;170.82;;;54.25;;
13595;SDS011;6868;52.544;13.416;2023-12-04T14:14:10;142.23;;;49.80;;
13595;SDS011;6868;52.544;13.416;2023-12-04T14:16:38;64.25;;;35.25;;
13595;SDS011;6868;52.544;13.416;2023-12-04T14:19:05;85.50;;;37.88;;
13595;SDS011;6868;52.544;13.416;2023-12-04T14:21:34;144.57;;;49.97;;
13595;SDS011;6868;52.544;13.416;2023-12-04T14:24:01;123.15;;;46.67;;